Time;durP1;ratioP1;P1;durP2;ratioP2;P2;SDS_P1;SDS_P2;PMS_P1;PMS_P2;Temp;Humidity;BMP_temperature;BMP_pressure;BME280_temperature;BME280_humidity;BME280_pressure;Samples;Min_cycle;Max_cycle;Signal;HPM_P1;HPM_P2
2023/01/09 00:00:43;;;;;;;3.58;3.17;;;;;;;14.05;49.02;91922.59;4971452;28;20031;-85
2023/01/09 00:03:08;;;;;;;3.22;2.40;;;;;;;14.02;49.24;91907.34;4985188;28;20494;-85
2023/01/09 00:05:34;;;;;;;3.85;2.95;;;;;;;14.07;49.00;91898.34;4969502;28;20030;-84
2023/01/09 00:07:59;;;;;;;3.05;2.75;;;;;;;14.06;48.88;91896.16;4953146;28;20070;-84
2023/01/09 00:10:25;;;;;;;3.30;2.63;;;;;;;14.04;49.00;91912.25;4969172;28;20031;-85
2023/01/09 00:12:50;;;;;;;5.07;3.03;;;;;;;14.05;48.89;91908.28;4968925;28;20086;-85
2023/01/09 00:15:16;;;;;;;3.47;2.92;;;;;;;14.07;48.75;91903.78;4968396;28;20034;-85
2023/01/09 00:17:41;;;;;;;2.95;2.42;;;;;;;14.10;48.69;91912.88;4954520;28;20038;-85
2023/01/09 00:20:08;;;;;;;3.05;2.75;;;;;;;14.06;49.20;91901.59;4975271;28;20402;-85
2023/01/09 00:22:34;;;;;;;3.60;2.72;;;;;;;14.04;48.75;91901.38;4969105;28;20454;-85
2023/01/09 00:24:59;;;;;;;2.58;2.30;;;;;;;14.02;49.18;91896.47;4968717;28;20093;-85
2023/01/09 00:27:24;;;;;;;4.03;3.03;;;;;;;14.02;49.19;91893.03;4982106;28;20059;-85
2023/01/09 00:29:50;;;;;;;3.70;2.88;;;;;;;14.00;49.20;91885.38;4968997;28;20516;-85
2023/01/09 00:32:15;;;;;;;4.00;3.03;;;;;;;14.06;49.08;91879.88;4969063;28;20049;-85
2023/01/09 00:34:42;;;;;;;4.40;2.75;;;;;;;14.04;48.89;91860.63;4970526;28;20042;-85
2023/01/09 00:37:10;;;;;;;4.20;2.97;;;;;;;14.07;49.01;91867.75;4936166;28;20038;-85
2023/01/09 00:39:36;;;;;;;3.42;2.95;;;;;;;14.05;49.07;91860.13;4984404;28;20041;-84
2023/01/09 00:42:02;;;;;;;3.13;2.80;;;;;;;14.06;48.89;91849.97;4969542;28;20525;-85
2023/01/09 00:44:30;;;;;;;3.13;2.75;;;;;;;14.06;49.11;91849.97;4952134;28;20078;-85
2023/01/09 00:47:06;;;;;;;2.88;2.58;;;;;;;14.06;49.02;91855.41;4999726;28;20114;-85
2023/01/09 00:49:33;;;;;;;3.15;2.47;;;;;;;14.08;49.00;91847.44;4949682;28;20046;-84
2023/01/09 00:51:58;;;;;;;3.42;2.83;;;;;;;14.12;48.71;91844.44;5000919;28;20051;-85
2023/01/09 00:54:24;;;;;;;2.53;2.33;;;;;;;14.07;48.55;91838.56;4967811;28;20035;-90
2023/01/09 00:56:49;;;;;;;3.38;2.70;;;;;;;14.08;49.10;91837.31;4984395;28;20065;-85
2023/01/09 00:59:14;;;;;;;3.47;2.47;;;;;;;14.10;48.82;91836.06;4966881;28;20038;-85
2023/01/09 01:01:40;;;;;;;3.17;2.88;;;;;;;14.06;49.01;91831.69;4968476;28;20038;-84
2023/01/09 01:09:33;;;;;;;2.70;2.50;;;;;;;14.08;48.88;91814.84;4981998;28;20050;-85
2023/01/09 01:12:00;;;;;;;3.22;2.67;;;;;;;14.10;48.92;91809.63;4952363;28;20046;-85
2023/01/09 01:14:25;;;;;;;3.65;2.75;;;;;;;14.06;48.79;91804.53;4983188;28;20093;-85
2023/01/09 01:16:51;;;;;;;3.50;2.72;;;;;;;14.10;49.05;91800.75;5000337;28;20042;-85
2023/01/09 01:19:16;;;;;;;3.42;2.85;;;;;;;14.07;49.08;91803.25;4952097;28;20445;-85
2023/01/09 01:21:42;;;;;;;3.33;2.65;;;;;;;14.10;48.71;91795.31;4951891;28;20397;-85
2023/01/09 01:24:07;;;;;;;3.60;3.10;;;;;;;14.07;49.00;91792.38;4967591;28;20035;-85
2023/01/09 01:26:32;;;;;;;2.90;2.60;;;;;;;14.08;49.13;91790.41;4968853;28;20536;-84
2023/01/09 01:28:58;;;;;;;3.40;2.72;;;;;;;14.09;49.11;91797.28;4951318;28;20051;-85
2023/01/09 01:31:23;;;;;;;4.82;3.05;;;;;;;14.12;48.83;91787.38;4951360;28;20038;-85
2023/01/09 01:33:49;;;;;;;2.67;2.47;;;;;;;14.14;48.80;91782.16;4968575;28;20038;-85
2023/01/09 01:36:16;;;;;;;3.20;2.75;;;;;;;14.12;48.75;91776.50;4983091;28;20376;-85
2023/01/09 01:38:41;;;;;;;3.38;2.90;;;;;;;14.12;48.95;91774.53;4966987;28;20134;-85
2023/01/09 01:41:07;;;;;;;2.88;2.50;;;;;;;14.05;49.26;91770.47;4967567;28;20476;-85
2023/01/09 01:44:02;;;;;;;2.58;2.30;;;;;;;14.14;49.07;91760.41;4967673;28;20042;-85
2023/01/09 01:46:28;;;;;;;4.28;2.78;;;;;;;14.12;48.74;91760.19;4942996;28;20105;-85
2023/01/09 01:49:03;;;;;;;3.13;2.58;;;;;;;14.13;48.63;91731.78;4999436;28;20121;-86
2023/01/09 01:51:30;;;;;;;3.90;2.55;;;;;;;14.10;48.96;91743.69;4999060;28;20062;-85
2023/01/09 01:53:57;;;;;;;3.58;2.83;;;;;;;14.11;48.91;91737.72;5000146;28;20051;-85
2023/01/09 01:56:27;;;;;;;2.90;2.55;;;;;;;14.07;48.94;91737.34;4951220;28;20066;-85
2023/01/09 01:59:14;;;;;;;4.50;2.90;;;;;;;14.11;48.69;91723.41;4998975;28;20515;-89
2023/01/09 02:01:42;;;;;;;2.70;2.47;;;;;;;14.12;48.88;91714.75;4980163;28;20406;-84
2023/01/09 02:04:07;;;;;;;3.05;2.70;;;;;;;14.10;48.77;91711.09;4950397;28;20047;-85
2023/01/09 02:06:34;;;;;;;2.88;2.58;;;;;;;14.14;48.54;91714.22;4983533;28;20046;-84
2023/01/09 02:09:00;;;;;;;3.45;2.80;;;;;;;14.09;49.04;91699.47;4982946;28;20580;-85
2023/01/09 02:11:26;;;;;;;3.30;3.00;;;;;;;14.15;48.87;91707.53;4999763;28;20122;-85
2023/01/09 02:13:51;;;;;;;4.03;2.80;;;;;;;14.12;49.00;91697.72;4967254;28;20047;-85
2023/01/09 02:16:26;;;;;;;3.25;2.83;;;;;;;14.14;48.78;91695.19;4951049;28;20386;-85
2023/01/09 02:18:53;;;;;;;3.10;2.60;;;;;;;14.11;48.81;91694.25;4998959;28;20075;-85
2023/01/09 02:21:32;;;;;;;3.03;2.60;;;;;;;14.10;49.11;91689.34;4983102;28;20053;-85
2023/01/09 02:24:11;;;;;;;3.15;2.65;;;;;;;14.07;49.01;91672.84;4998493;28;20486;-86
2023/01/09 02:26:50;;;;;;;2.55;2.30;;;;;;;14.08;48.83;91658.00;4950719;28;20061;-85
2023/01/09 02:29:44;;;;;;;3.42;2.47;;;;;;;14.10;48.93;91652.03;4981988;28;20038;-84
2023/01/09 02:32:18;;;;;;;2.67;2.35;;;;;;;14.14;48.82;91657.88;4966916;28;20031;-85
2023/01/09 02:35:03;;;;;;;3.90;3.08;;;;;;;14.13;48.54;91647.53;4983310;28;20531;-86
2023/01/09 02:37:43;;;;;;;2.47;2.28;;;;;;;14.15;48.68;91639.59;4981918;28;20146;-84
2023/01/09 02:40:25;;;;;;;2.90;2.53;;;;;;;14.13;48.89;91647.53;4982764;28;20121;-84
2023/01/09 02:42:50;;;;;;;2.65;2.35;;;;;;;14.12;48.96;91641.38;4981993;28;20035;-85
2023/01/09 02:45:16;;;;;;;3.38;2.63;;;;;;;14.13;48.73;91651.00;4950384;28;20042;-85
2023/01/09 02:47:43;;;;;;;3.03;2.65;;;;;;;14.13;48.58;91647.53;4968587;28;20050;-85
2023/01/09 02:50:21;;;;;;;3.20;2.72;;;;;;;14.07;49.14;91645.66;4965550;28;20042;-85
2023/01/09 02:53:25;;;;;;;2.72;2.17;;;;;;;14.15;48.77;91653.91;4981374;28;20050;-85
2023/01/09 02:56:11;;;;;;;3.00;2.38;;;;;;;14.13;48.87;91652.97;4963959;28;20415;-85
2023/01/09 02:58:56;;;;;;;3.63;2.63;;;;;;;14.15;48.73;91658.63;4958116;28;20055;-85
2023/01/09 03:01:31;;;;;;;2.95;2.53;;;;;;;14.13;48.61;91675.44;4979926;28;20035;-85
2023/01/09 03:04:11;;;;;;;3.13;2.10;;;;;;;14.11;48.77;91664.38;4982923;28;20043;-85
2023/01/09 03:06:57;;;;;;;3.13;2.60;;;;;;;14.08;48.78;91659.97;4966111;28;20042;-84
2023/01/09 03:09:26;;;;;;;2.78;2.45;;;;;;;14.08;48.98;91663.44;4981073;28;20232;-85
2023/01/09 03:11:54;;;;;;;3.60;2.65;;;;;;;14.13;48.91;91658.41;4986611;28;20061;-87
2023/01/09 03:14:22;;;;;;;2.65;2.40;;;;;;;14.12;48.82;91660.41;4986219;28;20475;-88
2023/01/09 03:16:49;;;;;;;2.53;2.30;;;;;;;14.12;48.82;91654.97;5003425;28;20035;-86
2023/01/09 03:19:17;;;;;;;2.90;2.58;;;;;;;14.12;48.98;91662.38;5004967;28;20102;-85
2023/01/09 03:21:43;;;;;;;3.17;2.65;;;;;;;14.13;48.70;91653.72;4954951;28;20035;-91
2023/01/09 03:24:08;;;;;;;3.28;2.63;;;;;;;14.13;48.87;91655.69;5002372;28;20045;-85
2023/01/09 03:26:34;;;;;;;3.17;2.10;;;;;;;14.15;48.67;91661.34;4970070;28;20054;-84
2023/01/09 03:28:59;;;;;;;2.67;2.33;;;;;;;14.14;48.66;91649.00;4988686;28;20047;-85
2023/01/09 03:31:25;;;;;;;3.58;2.60;;;;;;;14.11;49.03;91652.78;4970071;28;20041;-85
2023/01/09 03:33:50;;;;;;;2.50;2.30;;;;;;;14.15;48.60;91653.19;4953787;28;20053;-85
2023/01/09 03:36:17;;;;;;;4.22;2.47;;;;;;;14.16;48.50;91649.94;4937302;28;20046;-85
2023/01/09 03:38:42;;;;;;;3.38;2.88;;;;;;;14.16;48.79;91646.50;4945905;28;20046;-85
2023/01/09 03:41:07;;;;;;;2.50;2.28;;;;;;;14.13;49.05;91651.00;4969058;28;20457;-85
2023/01/09 03:43:33;;;;;;;3.17;2.30;;;;;;;14.13;48.76;91642.84;4953878;28;20054;-85
2023/01/09 03:45:58;;;;;;;4.70;2.70;;;;;;;14.13;48.87;91653.72;4970378;28;20449;-85
2023/01/09 03:48:24;;;;;;;2.75;2.35;;;;;;;14.13;48.76;91659.16;4968968;28;20063;-85
2023/01/09 03:50:52;;;;;;;3.38;2.42;;;;;;;14.13;48.88;91659.16;4941698;28;20039;-91
2023/01/09 03:53:18;;;;;;;3.40;2.55;;;;;;;14.12;49.15;91656.94;4992695;28;20034;-85
2023/01/09 03:55:48;;;;;;;3.70;2.40;;;;;;;14.14;48.93;91668.75;4949761;28;20039;-84
2023/01/09 03:58:14;;;;;;;2.65;2.20;;;;;;;14.18;48.97;91669.16;4965913;28;20043;-85
2023/01/09 04:00:39;;;;;;;3.67;2.63;;;;;;;14.19;48.65;91673.34;4977908;28;20056;-85
2023/01/09 04:03:05;;;;;;;3.28;2.42;;;;;;;14.18;48.66;91668.44;4937805;28;20067;-84
2023/01/09 04:05:31;;;;;;;2.70;2.03;;;;;;;14.19;48.90;91659.75;4982088;28;20122;-84
2023/01/09 04:07:56;;;;;;;2.92;2.40;;;;;;;14.18;48.78;91665.72;4950135;28;20035;-85
2023/01/09 04:10:22;;;;;;;2.75;2.30;;;;;;;14.19;48.54;91672.63;4981802;28;20043;-84
2023/01/09 04:12:47;;;;;;;2.92;2.38;;;;;;;14.21;48.83;91668.13;4980336;28;20054;-85
2023/01/09 04:15:12;;;;;;;3.20;2.63;;;;;;;14.20;49.05;91669.38;4949962;28;20050;-88
2023/01/09 04:17:38;;;;;;;2.75;2.35;;;;;;;14.17;48.80;91669.69;4966196;28;20031;-85
2023/01/09 04:20:04;;;;;;;2.75;2.33;;;;;;;14.18;48.69;91679.31;4944203;28;20043;-85
2023/01/09 04:22:30;;;;;;;2.40;2.17;;;;;;;14.21;48.48;91673.56;4962104;28;20393;-85
2023/01/09 04:24:55;;;;;;;3.08;2.45;;;;;;;14.20;48.72;91672.09;4944939;28;20452;-85
2023/01/09 04:27:21;;;;;;;3.05;2.30;;;;;;;14.21;48.48;91664.69;4944986;28;20040;-85
2023/01/09 04:29:46;;;;;;;2.58;2.17;;;;;;;14.17;48.77;91670.44;4970440;28;20106;-85
2023/01/09 04:32:12;;;;;;;3.17;2.60;;;;;;;14.17;48.60;91673.16;4949569;28;20039;-84
2023/01/09 04:34:37;;;;;;;2.50;2.08;;;;;;;14.20;48.50;91663.94;4949185;28;20398;-85
2023/01/09 04:37:02;;;;;;;2.45;2.25;;;;;;;14.18;49.04;91671.16;4944553;28;20040;-86
2023/01/09 04:39:28;;;;;;;6.05;2.80;;;;;;;14.18;48.87;91666.47;4946431;28;20043;-85
2023/01/09 04:41:53;;;;;;;2.85;2.35;;;;;;;14.20;48.72;91669.38;4914475;29;20031;-85
2023/01/09 04:44:20;;;;;;;3.95;2.67;;;;;;;14.20;48.84;91671.38;4957732;28;20040;-85
2023/01/09 04:46:46;;;;;;;2.97;2.25;;;;;;;14.24;48.81;91677.22;4981921;28;20755;-85
2023/01/09 04:49:11;;;;;;;4.43;2.95;;;;;;;14.21;48.64;91679.00;4942595;28;20507;-92
2023/01/09 04:51:37;;;;;;;2.85;2.50;;;;;;;14.23;48.98;91692.06;4962322;28;20043;-84
2023/01/09 04:54:02;;;;;;;2.70;2.13;;;;;;;14.18;48.85;91701.06;4953003;28;20046;-84
2023/01/09 04:56:28;;;;;;;3.13;2.50;;;;;;;14.19;48.70;91705.22;4916079;29;20035;-85
2023/01/09 04:58:53;;;;;;;3.35;2.42;;;;;;;14.22;48.69;91704.19;4933587;28;20039;-84
2023/01/09 05:01:18;;;;;;;2.83;2.25;;;;;;;14.23;48.81;91705.66;4964333;28;20062;-85
2023/01/09 05:03:44;;;;;;;2.85;2.58;;;;;;;14.21;48.69;91713.59;4965107;28;20090;-84
2023/01/09 05:06:10;;;;;;;3.13;2.50;;;;;;;14.18;48.80;91717.34;4965024;28;20035;-85
2023/01/09 05:08:35;;;;;;;3.38;2.80;;;;;;;14.15;48.90;91723.84;4981468;28;20043;-85
2023/01/09 05:11:01;;;;;;;2.72;2.35;;;;;;;14.18;48.63;91714.63;4964721;28;20036;-84
2023/01/09 05:13:26;;;;;;;3.03;2.50;;;;;;;14.17;48.92;91718.59;4948612;28;20038;-86
2023/01/09 05:15:52;;;;;;;2.83;2.33;;;;;;;14.17;48.65;91705.75;4965452;28;20079;-85
2023/01/09 05:18:17;;;;;;;2.95;2.53;;;;;;;14.19;48.84;91729.69;4964494;28;20043;-85
2023/01/09 05:20:42;;;;;;;3.63;2.70;;;;;;;14.21;48.67;91738.06;4964760;28;20047;-85
2023/01/09 05:23:08;;;;;;;3.25;2.70;;;;;;;14.24;48.66;91758.75;4964442;28;20042;-85
2023/01/09 05:25:33;;;;;;;3.72;2.70;;;;;;;14.22;48.66;91777.56;4965426;28;20039;-83
2023/01/09 05:28:00;;;;;;;4.38;2.22;;;;;;;14.28;48.57;91773.50;4982220;28;20063;-85
2023/01/09 05:30:26;;;;;;;3.97;2.17;;;;;;;14.29;48.86;91788.53;4967923;28;20062;-85
2023/01/09 05:32:51;;;;;;;2.75;2.42;;;;;;;14.32;49.08;91782.03;4966745;28;20482;-88
2023/01/09 05:35:17;;;;;;;3.55;2.67;;;;;;;14.33;48.67;91786.22;4980424;28;20043;-89
2023/01/09 05:37:42;;;;;;;4.80;2.50;;;;;;;14.30;48.55;91792.69;4964079;28;20422;-89
2023/01/09 05:40:08;;;;;;;4.45;3.40;;;;;;;14.30;48.88;91792.69;4988006;28;20039;-87
2023/01/09 05:42:34;;;;;;;4.13;3.40;;;;;;;14.29;48.71;91799.38;4972489;28;20047;-84
2023/01/09 05:44:59;;;;;;;4.45;3.28;;;;;;;14.28;48.82;91787.09;4965637;28;20117;-89
2023/01/09 05:47:24;;;;;;;5.47;3.88;;;;;;;14.32;48.77;91790.19;4963258;28;20454;-89
2023/01/09 05:49:50;;;;;;;8.32;4.75;;;;;;;14.33;48.45;91796.38;4975210;28;20042;-87
2023/01/09 05:52:15;;;;;;;34.35;5.40;;;;;;;14.30;48.71;91806.28;4948564;28;20039;-86
2023/01/09 05:54:41;;;;;;;36.70;8.23;;;;;;;14.32;46.37;91817.38;4965008;28;20043;-92
2023/01/09 05:57:06;;;;;;;35.40;10.27;;;;;;;14.13;45.50;91821.44;4964064;28;20040;-89
2023/01/09 05:59:32;;;;;;;38.67;10.32;;;;;;;14.00;44.90;91822.16;4929420;28;20046;-86
2023/01/09 06:01:57;;;;;;;45.03;13.23;;;;;;;13.96;44.88;91830.63;4945410;28;20043;-89
2023/01/09 06:04:28;;;;;;;41.85;12.20;;;;;;;13.98;45.33;91827.38;4936985;28;20085;-84
2023/01/09 06:06:54;;;;;;;42.83;17.23;;;;;;;14.10;45.44;91830.63;4943749;28;20173;-87
2023/01/09 06:09:19;;;;;;;75.88;23.05;;;;;;;14.08;45.99;91831.88;4914325;29;20050;-84
2023/01/09 06:11:45;;;;;;;65.32;17.70;;;;;;;14.02;46.30;91844.84;4928924;29;20044;-87
2023/01/09 06:14:10;;;;;;;62.00;15.75;;;;;;;14.08;46.56;91842.75;4929387;28;20293;-90
2023/01/09 06:16:35;;;;;;;57.92;11.68;;;;;;;14.06;46.34;91839.13;4949125;28;20410;-85
2023/01/09 06:19:01;;;;;;;64.32;15.95;;;;;;;14.02;46.46;91830.53;4935269;29;20040;-87
2023/01/09 06:21:28;;;;;;;73.07;18.95;;;;;;;14.07;46.72;91829.72;4947001;28;20389;-84
2023/01/09 06:23:55;;;;;;;47.08;14.52;;;;;;;14.05;46.33;91834.94;4919227;29;20044;-88
2023/01/09 06:26:21;;;;;;;39.72;11.95;;;;;;;14.08;46.82;91834.59;4922377;28;20036;-89
2023/01/09 06:28:46;;;;;;;53.55;15.18;;;;;;;14.12;47.38;91845.16;4961946;28;20032;-87
2023/01/09 06:31:12;;;;;;;69.32;22.20;;;;;;;14.22;47.26;91848.22;4915323;28;20062;-86
2023/01/09 06:33:37;;;;;;;71.03;19.40;;;;;;;14.28;46.98;91843.44;4931823;28;20044;-82
2023/01/09 06:36:03;;;;;;;74.88;24.73;;;;;;;14.29;46.88;91847.59;4913854;29;20439;-85
2023/01/09 06:38:30;;;;;;;80.55;34.30;;;;;;;14.20;47.31;91848.75;4882014;29;20054;-84
2023/01/09 06:40:56;;;;;;;103.07;40.30;;;;;;;14.20;47.18;91853.44;4932221;28;20048;-85
2023/01/09 06:43:22;;;;;;;73.90;36.15;;;;;;;14.21;46.31;91846.75;4906170;28;20062;-86
2023/01/09 06:45:47;;;;;;;94.15;40.33;;;;;;;14.23;46.83;91839.56;4910673;29;20056;-86
2023/01/09 06:48:13;;;;;;;104.50;40.97;;;;;;;14.23;46.60;91844.97;4934655;29;20585;-87
2023/01/09 06:50:38;;;;;;;103.13;39.85;;;;;;;14.28;46.93;91846.88;4902035;29;20207;-86
2023/01/09 06:53:04;;;;;;;89.40;39.42;;;;;;;14.29;46.78;91850.31;4898746;29;20043;-83
2023/01/09 06:55:29;;;;;;;88.25;38.95;;;;;;;14.24;47.00;91841.00;4943420;28;20413;-84
2023/01/09 06:57:54;;;;;;;82.18;37.33;;;;;;;14.24;47.40;91843.72;4957668;28;20050;-91
2023/01/09 07:00:20;;;;;;;83.25;36.45;;;;;;;14.27;47.20;91852.84;4920929;28;20449;-86
2023/01/09 07:02:46;;;;;;;98.65;32.72;;;;;;;14.26;46.28;91857.53;4928012;28;21017;-87
2023/01/09 07:05:11;;;;;;;74.85;29.65;;;;;;;14.29;46.71;91858.47;4953927;28;20054;-86
2023/01/09 07:07:39;;;;;;;73.95;34.45;;;;;;;14.36;47.37;91853.13;4933314;28;20035;-89
2023/01/09 07:10:05;;;;;;;65.95;29.77;;;;;;;14.41;47.04;91857.03;4969108;28;20047;-83
2023/01/09 07:12:30;;;;;;;82.03;29.73;;;;;;;14.33;45.58;91862.34;4951956;28;20051;-86
2023/01/09 07:14:56;;;;;;;50.28;18.15;;;;;;;14.37;46.05;91864.75;4936570;28;20094;-86
2023/01/09 07:17:21;;;;;;;35.75;15.00;;;;;;;14.33;45.27;91870.47;4934879;28;20032;-83
2023/01/09 07:19:46;;;;;;;41.15;13.48;;;;;;;14.33;45.90;91878.63;4966430;28;20061;-86
2023/01/09 07:22:13;;;;;;;35.78;12.93;;;;;;;14.32;45.83;91882.59;4966687;28;20031;-86
2023/01/09 07:24:38;;;;;;;44.00;13.55;;;;;;;14.17;46.34;91879.66;4969291;28;20031;-87
2023/01/09 07:27:05;;;;;;;36.22;14.02;;;;;;;14.17;46.85;91895.25;4968186;28;20090;-87
2023/01/09 07:29:30;;;;;;;32.08;12.82;;;;;;;14.11;46.69;91908.19;4968154;28;20043;-88
2023/01/09 07:31:56;;;;;;;40.67;13.93;;;;;;;14.08;46.85;91912.66;4959649;28;20124;-87
2023/01/09 07:34:21;;;;;;;43.90;15.15;;;;;;;14.01;47.30;91916.00;4979262;28;20494;-85
2023/01/09 07:36:49;;;;;;;47.08;15.70;;;;;;;13.96;47.02;91924.97;4981335;28;20063;-82
2023/01/09 07:39:15;;;;;;;70.35;25.02;;;;;;;14.01;47.02;91929.59;4963303;28;20046;-83
2023/01/09 07:41:40;;;;;;;92.60;36.83;;;;;;;14.04;46.97;91931.28;4984162;28;20039;-84
2023/01/09 07:44:06;;;;;;;91.30;42.80;;;;;;;14.08;46.69;91928.97;4965839;28;20566;-84
2023/01/09 07:46:32;;;;;;;86.10;42.65;;;;;;;14.14;46.92;91940.50;4951752;28;20426;-83
2023/01/09 07:48:57;;;;;;;91.10;44.55;;;;;;;14.16;46.90;91948.84;4950249;28;20102;-85
2023/01/09 07:51:23;;;;;;;134.32;63.17;;;;;;;14.19;46.81;91936.22;4946933;28;20032;-84
2023/01/09 07:53:48;;;;;;;145.85;67.82;;;;;;;14.17;47.20;91953.03;4965668;28;20040;-85
2023/01/09 07:56:13;;;;;;;155.88;71.97;;;;;;;14.20;47.42;91954.00;4945806;28;20039;-85
2023/01/09 07:58:39;;;;;;;141.60;68.75;;;;;;;14.24;47.21;91952.44;4957731;28;20043;-85
2023/01/09 08:01:05;;;;;;;131.35;62.65;;;;;;;14.22;47.30;91952.22;4948044;28;20079;-85
2023/01/09 08:03:32;;;;;;;137.20;63.88;;;;;;;14.22;47.39;91949.50;4949934;28;20518;-86
2023/01/09 08:05:58;;;;;;;143.38;60.17;;;;;;;14.25;47.42;91956.63;4980930;28;20043;-86
2023/01/09 08:08:23;;;;;;;128.27;56.42;;;;;;;14.24;47.21;91952.44;4967599;28;20228;-86
2023/01/09 08:10:49;;;;;;;138.35;56.38;;;;;;;14.32;47.17;91960.72;4952357;28;20094;-84
2023/01/09 08:13:14;;;;;;;117.53;54.22;;;;;;;14.29;47.27;91976.06;4967228;28;20043;-84
2023/01/09 08:15:40;;;;;;;114.90;54.42;;;;;;;14.26;47.48;91970.94;4951624;28;20055;-85
2023/01/09 08:18:05;;;;;;;119.90;52.72;;;;;;;14.35;47.41;91984.13;4966412;28;20035;-84
2023/01/09 08:20:30;;;;;;;141.90;58.67;;;;;;;14.31;47.17;91984.44;4966951;28;20037;-84
2023/01/09 08:22:56;;;;;;;151.50;67.78;;;;;;;14.30;47.20;92003.97;4968450;28;20406;-85
2023/01/09 08:25:22;;;;;;;172.50;80.45;;;;;;;14.25;47.70;91994.69;4950477;28;20050;-85
2023/01/09 08:27:47;;;;;;;177.98;85.20;;;;;;;14.21;47.37;91988.06;4950457;28;20082;-84
2023/01/09 08:30:13;;;;;;;176.68;79.68;;;;;;;14.12;47.27;92000.06;4945023;28;20046;-86
2023/01/09 08:32:38;;;;;;;162.68;71.78;;;;;;;14.17;47.08;92003.94;4935938;28;20044;-84
2023/01/09 08:35:04;;;;;;;160.57;67.28;;;;;;;14.23;47.52;92015.47;4949855;28;20054;-84
2023/01/09 08:37:30;;;;;;;162.10;74.40;;;;;;;14.23;47.30;92013.47;4935852;28;20126;-83
2023/01/09 08:39:55;;;;;;;180.60;83.78;;;;;;;14.21;47.81;92018.69;4945701;28;20040;-85
2023/01/09 08:47:52;;;;;;;175.90;85.47;;;;;;;14.33;47.84;92033.59;4968449;28;20046;-86
2023/01/09 08:50:17;;;;;;;201.27;91.45;;;;;;;14.32;47.53;92034.09;4951451;28;20122;-86
2023/01/09 08:52:43;;;;;;;184.07;89.05;;;;;;;14.35;47.55;92039.25;4950628;28;20120;-84
2023/01/09 08:55:08;;;;;;;202.82;94.43;;;;;;;14.38;47.71;92038.19;4954461;28;20581;-85
2023/01/09 08:57:34;;;;;;;167.48;85.03;;;;;;;14.40;47.89;92045.84;4970841;28;20073;-85
2023/01/09 08:59:59;;;;;;;162.88;84.32;;;;;;;14.32;47.60;92047.69;4953636;28;20047;-84
2023/01/09 09:02:25;;;;;;;170.57;82.85;;;;;;;14.39;47.79;92050.56;4953185;28;20438;-85
2023/01/09 09:04:54;;;;;;;161.10;80.45;;;;;;;14.46;47.75;92067.53;4974079;28;20043;-85
2023/01/09 09:07:25;;;;;;;156.07;80.40;;;;;;;14.39;47.39;92069.56;4949767;28;20047;-85
2023/01/09 09:09:52;;;;;;;149.23;73.60;;;;;;;14.49;47.66;92080.13;4949806;28;20134;-86
2023/01/09 09:12:18;;;;;;;157.68;76.30;;;;;;;14.46;47.50;92075.69;4948014;28;20044;-87
2023/01/09 09:17:27;;;;;;;163.27;75.82;;;;;;;14.46;47.49;92070.25;4969765;28;20058;-85
2023/01/09 09:19:53;;;;;;;142.57;72.97;;;;;;;14.46;47.86;92076.44;4967129;28;20035;-86
2023/01/09 09:22:19;;;;;;;154.02;73.30;;;;;;;14.48;47.70;92071.22;4982224;28;20094;-87
2023/01/09 09:24:44;;;;;;;168.57;76.22;;;;;;;14.46;47.82;92086.56;4956158;28;20042;-86
2023/01/09 09:27:09;;;;;;;152.40;78.78;;;;;;;14.47;47.70;92080.63;4928544;28;20662;-86
2023/01/09 09:29:35;;;;;;;151.20;73.55;;;;;;;14.49;47.82;92086.28;4971145;28;20097;-89
2023/01/09 09:32:00;;;;;;;135.63;73.00;;;;;;;14.50;47.78;92087.75;4992670;28;20050;-88
2023/01/09 09:34:26;;;;;;;141.07;76.68;;;;;;;14.54;47.79;92092.88;4987438;28;20054;-88
2023/01/09 09:36:51;;;;;;;152.80;78.50;;;;;;;14.53;47.85;92100.28;4967741;28;20039;-87
2023/01/09 09:39:17;;;;;;;146.40;80.63;;;;;;;14.53;47.98;92099.56;4968751;28;20106;-88
2023/01/09 09:45:03;;;;;;;162.55;88.93;;;;;;;14.55;47.96;92103.22;4961431;28;20086;-85
2023/01/09 09:47:42;;;;;;;163.18;91.45;;;;;;;14.53;47.94;92105.72;4958943;28;20045;-87
2023/01/09 09:50:35;;;;;;;162.68;87.95;;;;;;;14.55;47.98;92105.94;4964646;28;20036;-86
2023/01/09 09:53:29;;;;;;;174.32;88.82;;;;;;;14.56;47.85;92093.09;4963402;28;20125;-85
2023/01/09 09:55:56;;;;;;;188.90;99.65;;;;;;;14.50;48.14;92082.31;4973383;28;20069;-86
2023/01/09 09:58:41;;;;;;;247.05;130.20;;;;;;;14.54;48.02;92065.69;4955953;28;20572;-88
2023/01/09 10:01:07;;;;;;;246.27;125.85;;;;;;;14.53;48.07;92078.53;4983695;28;20042;-88
2023/01/09 10:03:51;;;;;;;256.13;134.60;;;;;;;14.53;48.20;92078.53;4956601;28;20047;-87
2023/01/09 10:06:28;;;;;;;269.13;140.75;;;;;;;14.52;47.80;92074.34;4955409;28;20035;-85
2023/01/09 10:09:18;;;;;;;278.73;140.43;;;;;;;14.55;48.29;92083.47;4956269;28;20050;-86
2023/01/09 10:11:58;;;;;;;277.80;152.63;;;;;;;14.55;47.96;92072.59;4989334;28;20043;-85
2023/01/09 10:14:23;;;;;;;285.63;148.13;;;;;;;14.55;48.06;92083.47;4973722;28;20528;-89
2023/01/09 10:17:07;;;;;;;285.35;148.20;;;;;;;14.54;48.24;92088.16;4940689;28;20050;-84
2023/01/09 10:19:56;;;;;;;272.52;137.00;;;;;;;14.57;47.89;92084.41;4998948;28;20109;-88
2023/01/09 10:22:58;;;;;;;274.08;136.25;;;;;;;14.54;48.33;92090.16;4988374;28;20034;-88
2023/01/09 10:25:44;;;;;;;260.42;125.97;;;;;;;14.55;48.10;92075.31;5006923;28;20363;-91
2023/01/09 10:28:21;;;;;;;239.05;122.15;;;;;;;14.56;48.07;92091.09;4946779;28;20051;-88
2023/01/09 10:30:55;;;;;;;244.15;126.75;;;;;;;14.56;48.30;92096.53;4957506;28;20094;-90
2023/01/09 10:33:33;;;;;;;239.93;124.00;;;;;;;14.60;48.28;92093.53;4938253;28;20035;-90
2023/01/09 10:36:08;;;;;;;231.05;117.88;;;;;;;14.61;48.17;92093.00;4963417;28;20463;-89
2023/01/09 10:38:42;;;;;;;229.85;118.03;;;;;;;14.59;48.19;92100.22;4980329;28;20872;-89
2023/01/09 10:41:16;;;;;;;210.68;112.32;;;;;;;14.60;48.24;92107.13;4953848;28;20490;-89
2023/01/09 10:43:50;;;;;;;217.57;111.30;;;;;;;14.61;48.17;92095.72;4972225;28;20035;-87
2023/01/09 10:46:24;;;;;;;198.32;103.45;;;;;;;14.61;48.06;92114.03;4951440;28;20043;-89
2023/01/09 10:48:54;;;;;;;196.15;100.53;;;;;;;14.60;48.08;92107.13;4984514;28;20138;-87
2023/01/09 10:51:50;;;;;;;182.52;98.47;;;;;;;14.62;48.32;92094.47;4953726;28;20047;-86
2023/01/09 10:54:21;;;;;;;165.20;92.38;;;;;;;14.66;48.03;92103.06;4967977;28;20054;-86
2023/01/09 10:57:11;;;;;;;192.95;98.07;;;;;;;14.64;48.58;92104.84;4983380;28;20489;-87
2023/01/09 10:59:38;;;;;;;172.68;89.72;;;;;;;14.68;48.27;92105.28;5001666;28;20055;-90
2023/01/09 11:02:03;;;;;;;142.43;80.70;;;;;;;14.63;48.17;92101.38;4972384;28;20034;-87
2023/01/09 11:04:30;;;;;;;167.02;87.22;;;;;;;14.63;48.57;92112.25;5003395;28;20485;-87
2023/01/09 11:06:58;;;;;;;151.32;80.55;;;;;;;14.62;48.32;92127.13;5005036;28;20042;-86
2023/01/09 11:09:24;;;;;;;140.02;80.53;;;;;;;14.63;48.42;92111.53;4997263;28;20106;-88
2023/01/09 11:11:49;;;;;;;149.02;80.53;;;;;;;14.62;48.32;92105.34;4950796;28;20461;-84
2023/01/09 11:14:17;;;;;;;132.90;71.35;;;;;;;14.59;48.38;92095.50;4953851;28;20039;-89
2023/01/09 11:16:55;;;;;;;129.27;70.68;;;;;;;14.61;48.42;92095.72;4986453;28;20413;-86
2023/01/09 11:19:21;;;;;;;116.55;62.55;;;;;;;14.68;48.67;92084.25;5002034;28;20090;-84
2023/01/09 11:21:46;;;;;;;258.50;184.35;;;;;;;14.69;48.73;92104.75;4970951;28;20039;-84
2023/01/09 11:24:18;;;;;;;225.95;129.52;;;;;;;14.73;48.54;92090.84;4957427;28;20042;-84
2023/01/09 11:26:44;;;;;;;110.07;61.53;;;;;;;14.77;48.61;92093.25;4991540;28;20186;-87
2023/01/09 11:29:16;;;;;;;123.95;65.07;;;;;;;14.77;48.32;92094.00;4988084;28;20074;-89
2023/01/09 11:31:49;;;;;;;114.47;59.70;;;;;;;14.78;48.67;92098.19;4975549;28;20031;-90
2023/01/09 11:34:18;;;;;;;110.40;58.05;;;;;;;14.85;47.91;92105.00;4991547;28;20054;-87
2023/01/09 11:36:44;;;;;;;116.15;59.20;;;;;;;14.81;48.10;92105.31;5008056;28;20125;-87
2023/01/09 11:39:25;;;;;;;102.82;56.90;;;;;;;14.80;48.40;92098.41;5005254;28;20103;-84
2023/01/09 11:41:56;;;;;;;87.97;51.53;;;;;;;14.85;48.47;92119.34;4939720;28;20453;-85
2023/01/09 11:44:21;;;;;;;92.07;52.80;;;;;;;14.83;48.38;92104.78;4992255;28;20069;-88